Flight Track Log - Related Links

Times and Time Zones

All times are in EDT time to prevent confusion due to time zone crossing. See the DAL4165 flight status page for this flight to view local times or setup timezone preferences in your user account.


Time Position Orientation Groundspeed Altitude Reporting Facility
EDT Latitude Longitude Course Direction KTS MPH feet Rate Location/Type
Tue 04:26:41 PM 33.6561 -84.3583 252° West 434 499 2,600  Level Atlanta Center
Tue 04:27:01 PM 33.6667 -84.3333 63° Northeast 227 261 2,900 2,233 Climbing Atlanta TRACON
Tue 04:28:07 PM 33.7167 -84.2833 40° Northeast 275 316 5,800 2,524 Climbing Atlanta TRACON
Tue 04:29:00 PM 33.8001 -84.4491 270° West  Level FlightAware Approximate
Tue 04:29:07 PM 33.8000 -84.3000 351° North 292 336 8,200  Level Atlanta TRACON
Tue 04:30:00 PM 33.8000 -84.5737 270° West  Level FlightAware Approximate
Tue 04:30:41 PM 33.8103 -84.4264 276° West 275 316 12,000  Level Atlanta Center
Tue 04:31:00 PM 33.7787 -84.6942 252° West  Level FlightAware Approximate
Tue 04:31:41 PM 33.8100 -84.5414 270° West 294 338 13,100  Level Atlanta Center
Tue 04:32:41 PM 33.7969 -84.6364 261° West 340 391 14,000 1,500 Climbing Atlanta Center
Tue 04:33:41 PM 33.7650 -84.7808 255° West 364 419 16,100 1,900 Climbing Atlanta Center
Tue 04:34:41 PM 33.7328 -84.9056 253° West 383 441 17,800 1,450 Climbing Atlanta Center
Tue 04:35:41 PM 33.6983 -85.0325 252° West 403 464 19,000 1,400 Climbing Atlanta Center
Tue 04:36:41 PM 33.6681 -85.1594 254° West 403 464 20,600 1,400 Climbing Atlanta Center
Tue 04:37:41 PM 33.6500 -85.2942 261° West 403 464 21,800 1,050 Climbing Atlanta Center
Tue 04:38:41 PM 33.6508 -85.4214 270° West 414 476 22,700 1,150 Climbing Atlanta Center
Tue 04:39:41 PM 33.6556 -85.5586 272° West 419 482 24,100 1,350 Climbing Atlanta Center
Tue 04:40:41 PM 33.6578 -85.6961 271° West 424 488 25,400 1,250 Climbing Atlanta Center
Tue 04:41:41 PM 33.6581 -85.8308 270° West 415 478 26,600 1,200 Climbing Atlanta Center
Tue 04:42:41 PM 33.6603 -85.9681 271° West 415 478 27,800 1,200 Climbing Atlanta Center
Tue 04:43:41 PM 33.6622 -86.1053 271° West 415 478 29,000 1,200 Climbing Atlanta Center
Tue 04:44:41 PM 33.6617 -86.2450 270° West 421 484 30,200 1,200 Climbing Atlanta Center
Tue 04:45:41 PM 33.6656 -86.3800 272° West 421 484 31,400 900 Climbing Atlanta Center
Tue 04:46:41 PM 33.6650 -86.5172 270° West 416 479 32,000 300 Climbing Atlanta Center
Tue 04:47:41 PM 33.6664 -86.6569 271° West 421 484 32,000  Level Atlanta Center
Tue 04:48:41 PM 33.6672 -86.8019 270° West 426 490 32,000  Level Atlanta Center
Tue 04:49:41 PM 33.6786 -86.9469 275° West 431 496 32,000 609 Level Atlanta Center
Tue 04:51:58 PM 33.7483 -87.2744 284° West 425 489 34,000 609 Climbing Memphis Center
Tue 04:52:58 PM 33.7744 -87.4083 283° West 425 489 34,000  Level Memphis Center
Tue 04:53:58 PM 33.8003 -87.5275 285° West 425 489 34,000  Level Memphis Center
Tue 04:54:58 PM 33.8283 -87.6642 284° West 425 489 34,000  Level Memphis Center
Tue 04:55:58 PM 33.8583 -87.7983 285° West 425 489 34,000  Level Memphis Center
Tue 04:56:58 PM 33.8858 -87.9300 284° West 420 483 34,000  Level Memphis Center
Tue 04:57:58 PM 33.9114 -88.0669 283° West 420 483 34,000  Level Memphis Center
Tue 04:58:58 PM 33.9411 -88.2039 285° West 415 478 34,000 150 Level Memphis Center
Tue 04:59:58 PM 33.9664 -88.3361 283° West 415 478 34,300 700 Climbing Memphis Center
Tue 05:00:58 PM 33.9933 -88.4681 284° West 410 472 35,400 850 Climbing Memphis Center
Tue 05:01:58 PM 34.0203 -88.5978 284° West 410 472 36,000 300 Climbing Memphis Center
Tue 05:02:58 PM 34.0450 -88.7303 283° West 410 472 36,000  Level Memphis Center
Tue 05:03:58 PM 34.0783 -88.8725 286° West 410 472 36,000  Level Memphis Center
Tue 05:04:58 PM 34.0983 -88.9950 281° West 410 472 36,000  Level Memphis Center
Tue 05:05:58 PM 34.1228 -89.1253 283° West 410 472 36,000  Level Memphis Center
Tue 05:06:58 PM 34.1533 -89.2628 285° West 398 458 36,000  Level Memphis Center
Tue 05:07:58 PM 34.1794 -89.3931 284° West 398 458 36,000  Level Memphis Center
Tue 05:08:58 PM 34.2033 -89.5233 283° West 398 458 36,000  Level Memphis Center
Tue 05:09:58 PM 34.2292 -89.6536 284° West 398 458 36,000  Level Memphis Center
Tue 05:10:58 PM 34.2528 -89.7792 283° West 392 451 36,000  Level Memphis Center
Tue 05:11:58 PM 34.2761 -89.9147 282° West 398 458 36,000  Level Memphis Center
Tue 05:12:58 PM 34.3017 -90.0428 284° West 398 458 36,000  Level Memphis Center
Tue 05:13:58 PM 34.3228 -90.1761 281° West 393 452 36,000  Level Memphis Center
Tue 05:14:58 PM 34.3481 -90.2994 284° West 393 452 36,000  Level Memphis Center
Tue 05:15:58 PM 34.3708 -90.4300 282° West 393 452 36,000  Level Memphis Center
Tue 05:16:58 PM 34.3917 -90.5458 282° West 398 458 36,000  Level Memphis Center
Tue 05:17:58 PM 34.4144 -90.6769 282° West 392 451 36,000  Level Memphis Center
Tue 05:18:58 PM 34.4411 -90.8053 284° West 392 451 36,000  Level Memphis Center
Tue 05:19:58 PM 34.4636 -90.9339 282° West 392 451 36,000  Level Memphis Center
Tue 05:20:58 PM 34.4836 -91.0678 280° West 392 451 36,000  Level Memphis Center
Tue 05:21:58 PM 34.5142 -91.2067 285° West 392 451 36,000  Level Memphis Center
Tue 05:22:58 PM 34.5361 -91.3378 282° West 392 451 36,000  Level Memphis Center
Tue 05:23:58 PM 34.5558 -91.4717 280° West 397 457 36,000  Level Memphis Center
Tue 05:24:58 PM 34.5797 -91.6058 282° West 397 457 36,000  Level Memphis Center
Tue 05:25:58 PM 34.6033 -91.7372 282° West 402 463 36,000  Level Memphis Center
Tue 05:26:58 PM 34.6269 -91.8689 282° West 402 463 36,000  Level Memphis Center
Tue 05:27:58 PM 34.6481 -92.0031 281° West 407 468 36,000  Level Memphis Center
Tue 05:28:58 PM 34.6714 -92.1350 282° West 407 468 36,000  Level Memphis Center
Tue 05:29:58 PM 34.6903 -92.2692 280° West 412 474 36,000  Level Memphis Center
Tue 05:30:58 PM 34.7089 -92.4033 280° West 412 474 36,000  Level Memphis Center
Tue 05:31:58 PM 34.7275 -92.5353 280° West 412 474 36,000  Level Memphis Center
Tue 05:32:58 PM 34.7461 -92.6647 280° West 407 468 36,000  Level Memphis Center
Tue 05:33:58 PM 34.7644 -92.7992 279° West 407 468 36,000  Level Memphis Center
Tue 05:34:58 PM 34.7808 -92.9183 280° West 407 468 36,000  Level Memphis Center
Tue 05:35:58 PM 34.8011 -93.0456 281° West 402 463 36,000  Level Memphis Center
Tue 05:36:58 PM 34.8192 -93.1775 278° West 402 463 36,000  Level Memphis Center
Tue 05:37:00 PM 34.8169 -93.1786 278° West  Level FlightAware Approximate
Tue 05:37:58 PM 34.8350 -93.3047 279° West 396 456 36,000  Level Memphis Center
Tue 05:38:58 PM 34.8525 -93.4369 279° West 391 450 36,000  Level Memphis Center
Tue 05:39:58 PM 34.8722 -93.5692 280° West 391 450 36,000  Level Memphis Center
Tue 05:40:58 PM 34.8875 -93.6989 278° West 391 450 36,000  Level Memphis Center
Tue 05:41:58 PM 34.9069 -93.8289 280° West 391 450 36,000  Level Memphis Center
Tue 05:42:58 PM 34.9242 -93.9611 279° West 396 456 36,000  Level Memphis Center
Tue 05:43:58 PM 34.9369 -94.0883 277° West 396 456 36,000 -300 Level Memphis Center
Tue 05:44:58 PM 34.9581 -94.2211 281° West 396 456 35,400 -800 Descending Memphis Center
Tue 05:45:58 PM 34.9725 -94.3536 278° West 391 450 34,400 -903 Descending Memphis Center
Tue 05:46:31 PM 34.9828 -94.4308 279° West 411 473 34,000 -258 Descending Fort Worth Center
Tue 05:47:31 PM 35.0006 -94.5594 280° West 411 473 34,000  Level Fort Worth Center
Tue 05:48:31 PM 35.0203 -94.6983 280° West 411 473 34,000  Level Fort Worth Center
Tue 05:49:31 PM 35.0356 -94.8347 278° West 411 473 34,000  Level Fort Worth Center
Tue 05:50:31 PM 35.0572 -94.9711 281° West 406 467 34,000  Level Fort Worth Center
Tue 05:51:31 PM 35.0744 -95.1100 279° West 406 467 34,000  Level Fort Worth Center
Tue 05:52:31 PM 35.0914 -95.2442 279° West 411 473 34,000 -500 Level Fort Worth Center
Tue 05:53:31 PM 35.1103 -95.3858 279° West 411 473 33,000 -1,100 Descending Fort Worth Center
Tue 05:54:31 PM 35.1269 -95.5147 279° West 405 466 31,800 -1,200 Descending Fort Worth Center
Tue 05:55:31 PM 35.1439 -95.6617 278° West 400 460 30,600 -1,200 Descending Fort Worth Center
Tue 05:56:31 PM 35.1581 -95.7961 277° West 400 460 29,400 -1,100 Descending Fort Worth Center
Tue 05:57:31 PM 35.1700 -95.9203 277° West 407 468 28,400 -1,150 Descending Fort Worth Center
Tue 05:58:31 PM 35.1883 -96.0544 280° West 407 468 27,100 2,800 Descending Fort Worth Center
Tue 05:59:31 PM 35.2019 -96.1761 278° West 399 459 34,000 3,450 Climbing Fort Worth Center
Tue 06:00:31 PM 35.2156 -96.2956 278° West 374 430 34,000 -6,250 Level Fort Worth Center
Tue 06:01:31 PM 35.2292 -96.4197 278° West 369 425 21,500 -9,786 Descending Fort Worth Center
Tue 06:01:55 PM 35.2381 -96.4883 279° West 389 448 20,300 -2,333 Descending Fort Worth Center
Tue 06:02:25 PM 35.2469 -96.5467 281° West 385 443 19,400 -1,846 Descending Fort Worth Center
Tue 06:03:26 PM 35.2581 -96.6761 276° West 377 434 17,500 -1,967 Descending Fort Worth Center
Tue 06:04:27 PM 35.2503 -96.8008 266° West 332 382 15,400 -1,872 Descending Fort Worth Center
Tue 06:05:31 PM 35.2447 -96.8975 266° West 338 389 13,600 -1,930 Descending Fort Worth Center
Tue 06:06:22 PM 35.2450 -96.9942 270° West 296 341 11,700 -1,892 Descending Fort Worth Center
Tue 06:07:22 PM 35.2411 -97.0856 267° West 274 315 10,100 -1,785 Descending Fort Worth Center
Tue 06:08:23 PM 35.2244 -97.1797 258° West 249 287 8,100 -1,918 Descending Fort Worth Center
Tue 06:09:24 PM 35.2058 -97.2636 255° West 257 296 6,200 -1,884 Descending Fort Worth Center
Tue 06:10:24 PM 35.1850 -97.3500 254° West 264 304 4,300 -1,438 Descending Fort Worth Center
Tue 06:11:25 PM 35.1811 -97.4364 267° West 256 295 3,300 -645 Descending Fort Worth Center
Tue 06:12:25 PM 35.1808 -97.5228 270° West 249 287 3,000 -149 Descending Fort Worth Center
Tue 06:13:26 PM 35.2122 -97.5889 300° West 236 272 3,000 48 Level Fort Worth Center
Tue 06:14:31 PM 35.2664 -97.5917 358° North 177 204 3,100 92 Climbing Fort Worth Center

Login

Don't have an account? Register now (free) for customized features, flight alerts, and more!